Карточка аэропорта URSS

Внимание!
Информация на этой странице в стадии наполнения.
Если вы не увидели какой-то информации, или заметили неточность - пожалуйста сообщите нам!
Спасибо!
Команда RU-STAFF
Название аэропортаСочи
Название аэропорта (англ.)Sochi
Превышение89 ft. (27.1 m.)
Координаты43°26.634', 39°56.55'
Высота перехода13000 ft
Эшелон переходаQNH>=977hPa: FL150; QNH<977hPa: FL160
Коды ответчика1060-1077
Зона ОрВДРостов-на-Дону РПИ (URRV)
Данные METARURSS 142100Z 04003MPS 9999 NSC 21/18 Q1007 R02/010070 R06/010070 NOSIG RMK R06/03001G04MPS QFE754
Проноз погоды (TAF)URSS 141957Z 1421/1521 05003G08MPS 9999 FEW040CB SCT100 BECMG 1502/1503 BKN030CB BKN100 TEMPO 1503/1506 VRB07G12MPS -TSRA FM150600 20004G09MPS 9999 SCT040CB BKN100 TEMPO 1506/1509 VRB07G12MPS -TSRA BECMG 1509/1511 28007G12MPS FEW030CB SCT100 BECMG 1517/1518 05003G08MPS BKN040CB BKN100 TEMPO 1518/1521 VRB07G12MPS -TSRA SCT015 BKN030CB OVC100
NOTAMshow/hide NOTAM
AWOS   TABLE

Информация о ВПП

ВПП Длина ВПП (м.) Покрытие Курс ВПП Частота ILS
022500Цементобетон22110.5
062890Цементобетон58111.1
202500Цементобетон202 
242890Цементобетон238 

Диспетчерские позиции

Позывной Наименование органа УВД Частота
URSSFM1119.000
URSS_APPСочи-Подход124.600
URSS_DELСочи-Деливери132.700
URSS_GNDСочи-Руление119.000
URSS_R_APPСочи-Круг119.700
URSS_TWRСочи-Старт121.200



Спутниковое изображение